createdAt,value
2018-05-21T00:01:50.200Z,43.80
2018-05-21T00:04:17.677Z,43.40
2018-05-21T00:09:19.135Z,43.80
2018-05-21T00:11:46.590Z,43.30
2018-05-21T00:14:14.045Z,43.60
2018-05-21T00:16:41.524Z,44.10
2018-05-21T00:19:08.977Z,43.40
2018-05-21T00:21:36.852Z,44.10
2018-05-21T00:24:04.325Z,44.00
2018-05-21T00:26:32.546Z,43.30
2018-05-21T00:28:59.992Z,43.20
2018-05-21T00:31:27.459Z,43.70
2018-05-21T00:33:54.920Z,44.10
2018-05-21T00:36:22.371Z,44.10
2018-05-21T00:38:49.837Z,44.20
2018-05-21T00:41:17.289Z,44.30
2018-05-21T00:43:44.741Z,44.60
2018-05-21T00:46:12.209Z,44.40
2018-05-21T00:48:39.677Z,44.80
2018-05-21T00:51:07.810Z,44.90
2018-05-21T00:53:35.277Z,44.50
2018-05-21T00:56:02.736Z,44.80
2018-05-21T00:58:30.184Z,45.00
2018-05-21T01:00:57.655Z,44.70
2018-05-21T01:03:25.105Z,44.50
2018-05-21T01:05:52.560Z,44.90
2018-05-21T01:08:20.792Z,44.90
2018-05-21T01:10:48.248Z,44.80
2018-05-21T01:13:15.706Z,44.90
2018-05-21T01:15:44.012Z,44.40
2018-05-21T01:18:11.389Z,44.80
2018-05-21T01:20:38.845Z,45.20
2018-05-21T01:23:06.327Z,45.50
2018-05-21T01:25:33.787Z,45.30
2018-05-21T01:28:01.238Z,45.70
2018-05-21T01:30:28.702Z,45.60
2018-05-21T01:32:56.917Z,45.90
2018-05-21T01:35:24.375Z,45.80
2018-05-21T01:37:52.595Z,45.70
2018-05-21T01:40:20.843Z,46.00
2018-05-21T01:42:49.053Z,46.10
2018-05-21T01:45:16.499Z,46.00
2018-05-21T01:47:43.961Z,46.10
2018-05-21T01:50:12.189Z,46.50
2018-05-21T01:52:39.651Z,46.50
2018-05-21T01:55:07.629Z,46.50
2018-05-21T01:57:35.904Z,46.20
2018-05-21T02:00:03.360Z,46.10
2018-05-21T02:02:30.812Z,46.30
2018-05-21T02:04:58.275Z,46.50
2018-05-21T02:07:26.495Z,46.40
2018-05-21T02:09:53.950Z,46.40
2018-05-21T02:12:22.173Z,46.60
2018-05-21T02:14:49.641Z,46.50
2018-05-21T02:17:17.856Z,47.00
2018-05-21T02:19:45.312Z,46.90
2018-05-21T02:22:12.764Z,47.10
2018-05-21T02:24:40.992Z,46.90
2018-05-21T02:27:08.490Z,46.80
2018-05-21T02:29:36.284Z,47.50
2018-05-21T02:32:03.718Z,47.30
2018-05-21T02:34:31.178Z,46.90
2018-05-21T02:36:58.629Z,46.80
2018-05-21T02:39:26.847Z,47.20
2018-05-21T02:41:54.299Z,47.10
2018-05-21T02:44:22.528Z,47.80
2018-05-21T02:46:49.976Z,47.50
2018-05-21T02:49:18.201Z,47.80
2018-05-21T02:51:45.647Z,47.80
2018-05-21T02:54:13.096Z,47.80
2018-05-21T02:56:40.553Z,47.60
2018-05-21T02:59:08.007Z,47.90
2018-05-21T03:01:36.884Z,48.10
2018-05-21T03:04:04.333Z,48.00
2018-05-21T03:06:31.799Z,47.80
2018-05-21T03:08:59.244Z,48.00
2018-05-21T03:11:26.707Z,48.00
2018-05-21T03:13:54.163Z,48.00
2018-05-21T03:16:21.628Z,48.10
2018-05-21T03:18:49.841Z,48.10
2018-05-21T03:21:17.300Z,48.00
2018-05-21T03:23:45.516Z,48.50
2018-05-21T03:26:12.971Z,48.20
2018-05-21T03:28:41.191Z,48.40
2018-05-21T03:31:08.652Z,48.30
2018-05-21T03:33:36.097Z,48.50
2018-05-21T03:36:04.315Z,48.30
2018-05-21T03:38:31.759Z,48.20
2018-05-21T03:40:59.224Z,48.60
2018-05-21T03:43:26.678Z,48.70
2018-05-21T03:45:54.123Z,49.10
2018-05-21T03:48:21.574Z,48.90
2018-05-21T03:50:49.032Z,49.10
2018-05-21T03:53:17.245Z,49.20
2018-05-21T03:55:45.463Z,49.40
2018-05-21T03:58:24.754Z,49.30
2018-05-21T04:01:04.078Z,49.20
2018-05-21T04:03:43.757Z,49.40
2018-05-21T04:06:11.210Z,49.50
2018-05-21T04:08:39.424Z,49.30
2018-05-21T04:11:06.892Z,49.20
2018-05-21T04:13:35.105Z,49.40
2018-05-21T04:16:02.557Z,49.30
2018-05-21T04:18:30.010Z,49.60
2018-05-21T04:20:57.458Z,49.70
2018-05-21T04:23:25.241Z,49.50
2018-05-21T04:25:53.460Z,49.40
2018-05-21T04:28:20.905Z,49.30
2018-05-21T04:30:49.124Z,49.70
2018-05-21T04:33:17.343Z,49.80
2018-05-21T04:35:44.797Z,49.70
2018-05-21T04:38:13.016Z,49.60
2018-05-21T04:40:40.485Z,49.50
2018-05-21T04:43:08.516Z,49.90
2018-05-21T04:45:35.978Z,50.30
2018-05-21T04:48:03.421Z,50.20
2018-05-21T04:50:30.876Z,50.00
2018-05-21T04:52:58.324Z,50.50
2018-05-21T04:55:25.780Z,50.70
2018-05-21T04:57:53.995Z,50.90
2018-05-21T05:00:21.448Z,50.80
2018-05-21T05:02:48.895Z,51.20
2018-05-21T05:05:16.351Z,51.10
2018-05-21T05:07:43.800Z,51.20
2018-05-21T05:10:11.264Z,50.90
2018-05-21T05:12:38.707Z,50.90
2018-05-21T05:15:06.471Z,51.10
2018-05-21T05:17:33.925Z,50.60
2018-05-21T05:20:01.379Z,50.40
2018-05-21T05:22:28.843Z,50.40
2018-05-21T05:24:56.305Z,50.60
2018-05-21T05:27:23.753Z,52.50
2018-05-21T05:29:51.203Z,51.50
2018-05-21T05:32:18.656Z,50.80
2018-05-21T05:34:46.119Z,51.30
2018-05-21T05:37:14.342Z,50.20
2018-05-21T05:39:41.783Z,50.20
2018-05-21T05:42:09.309Z,50.30
2018-05-21T05:44:37.115Z,50.10
2018-05-21T05:47:04.566Z,49.80
2018-05-21T05:49:32.016Z,50.00
2018-05-21T05:51:59.476Z,50.30
2018-05-21T05:54:26.920Z,49.00
2018-05-21T05:56:54.377Z,48.20
2018-05-21T05:59:22.599Z,48.30
2018-05-21T06:01:50.047Z,48.30
2018-05-21T06:04:17.495Z,48.70
2018-05-21T06:06:44.959Z,47.70
2018-05-21T06:09:12.412Z,47.40
2018-05-21T06:11:40.631Z,48.00
2018-05-21T06:14:08.084Z,47.90
2018-05-21T06:16:36.835Z,47.40
2018-05-21T06:19:04.289Z,46.80
2018-05-21T06:21:32.512Z,46.50
2018-05-21T06:23:59.979Z,46.50
2018-05-21T06:26:28.188Z,46.60
2018-05-21T06:28:55.636Z,46.40
2018-05-21T06:31:23.092Z,48.00
2018-05-21T06:33:50.649Z,46.80
2018-05-21T06:36:17.998Z,46.00
2018-05-21T06:38:46.220Z,47.40
2018-05-21T06:41:13.672Z,47.30
2018-05-21T06:43:41.899Z,46.00
2018-05-21T06:46:09.350Z,46.00
2018-05-21T06:48:37.881Z,45.40
2018-05-21T06:51:05.328Z,45.40
2018-05-21T06:53:32.775Z,45.00
2018-05-21T06:56:00.237Z,46.10
2018-05-21T06:58:27.678Z,45.30
2018-05-21T07:00:55.131Z,44.30
2018-05-21T07:03:22.589Z,45.90
2018-05-21T07:05:50.083Z,45.10
2018-05-21T07:08:17.532Z,45.30
2018-05-21T07:10:45.763Z,45.00
2018-05-21T07:13:13.215Z,44.90
2018-05-21T07:15:41.434Z,45.10
2018-05-21T07:18:08.917Z,44.40
2018-05-21T07:20:37.095Z,43.90
2018-05-21T07:23:04.568Z,43.90
2018-05-21T07:25:32.777Z,44.70
2018-05-21T07:28:00.238Z,44.10
2018-05-21T07:30:27.689Z,44.40
2018-05-21T07:32:55.156Z,43.20
2018-05-21T07:35:22.608Z,43.00
2018-05-21T07:37:50.053Z,42.60
2018-05-21T07:40:17.514Z,43.50
2018-05-21T07:42:44.963Z,43.60
2018-05-21T07:45:12.435Z,42.20
2018-05-21T07:47:40.639Z,41.40
2018-05-21T07:50:08.103Z,41.30
2018-05-21T07:52:36.959Z,41.70
2018-05-21T07:55:04.407Z,41.60
2018-05-21T07:57:32.633Z,42.50
2018-05-21T08:00:00.095Z,42.50
2018-05-21T08:02:28.311Z,41.30
2018-05-21T08:04:55.778Z,41.30
2018-05-21T08:07:23.995Z,40.80
2018-05-21T08:09:51.458Z,40.60
2018-05-21T08:12:19.675Z,40.50
2018-05-21T08:14:47.163Z,40.40
2018-05-21T08:17:14.607Z,39.20
2018-05-21T08:19:42.058Z,39.80
2018-05-21T08:22:09.552Z,41.20
2018-05-21T08:24:37.507Z,39.60
2018-05-21T08:27:05.015Z,39.80
2018-05-21T08:29:32.492Z,39.30
2018-05-21T08:31:59.966Z,39.40
2018-05-21T08:34:27.444Z,38.80
2018-05-21T08:36:56.726Z,38.20
2018-05-21T08:39:24.959Z,38.00
2018-05-21T08:41:52.416Z,37.40
2018-05-21T08:44:21.427Z,37.10
2018-05-21T08:46:49.659Z,36.90
2018-05-21T08:49:17.149Z,36.80
2018-05-21T08:51:44.615Z,36.80
2018-05-21T08:54:12.083Z,35.50
2018-05-21T08:56:40.393Z,37.20
2018-05-21T08:59:08.573Z,37.10
2018-05-21T09:01:37.187Z,36.80
2018-05-21T09:04:05.415Z,36.20
2018-05-21T09:06:32.877Z,36.10
2018-05-21T09:09:01.091Z,36.00
2018-05-21T09:11:28.548Z,35.90
2018-05-21T09:13:56.784Z,35.30
2018-05-21T09:16:24.293Z,35.30
2018-05-21T09:18:52.452Z,34.40
2018-05-21T09:21:19.913Z,34.30
2018-05-21T09:23:48.125Z,33.90
2018-05-21T09:26:16.348Z,33.90
2018-05-21T09:28:43.845Z,33.90
2018-05-21T09:31:12.021Z,34.10
2018-05-21T09:33:39.468Z,34.10
2018-05-21T09:36:08.299Z,34.30
2018-05-21T09:38:35.755Z,34.20
2018-05-21T09:41:03.211Z,34.40
2018-05-21T09:43:30.672Z,34.50
2018-05-21T09:45:58.121Z,33.90
2018-05-21T09:48:26.335Z,33.80
2018-05-21T09:50:53.783Z,33.70
2018-05-21T09:53:21.245Z,33.10
2018-05-21T09:55:48.696Z,33.60
2018-05-21T09:58:16.159Z,31.80
2018-05-21T10:00:44.382Z,30.70
2018-05-21T10:03:11.839Z,30.70
2018-05-21T10:05:40.058Z,32.30
2018-05-21T10:08:08.206Z,32.30
2018-05-21T10:10:35.660Z,31.70
2018-05-21T10:13:03.112Z,32.60
2018-05-21T10:15:30.576Z,31.10
2018-05-21T10:17:58.795Z,30.70
2018-05-21T10:20:26.267Z,30.60
2018-05-21T10:22:54.482Z,29.50
2018-05-21T10:25:21.954Z,29.40
2018-05-21T10:27:50.160Z,30.00
2018-05-21T10:30:17.615Z,30.00
2018-05-21T10:32:45.062Z,29.10
2018-05-21T10:35:13.277Z,30.00
2018-05-21T10:37:40.730Z,29.90
2018-05-21T10:40:08.181Z,30.00
2018-05-21T10:42:35.643Z,31.00
2018-05-21T10:45:03.858Z,30.00
2018-05-21T10:47:31.319Z,30.00
2018-05-21T10:49:59.539Z,29.30
2018-05-21T10:52:27.756Z,30.00
2018-05-21T10:54:55.211Z,30.00
2018-05-21T10:57:23.431Z,29.90
2018-05-21T10:59:50.883Z,29.80
2018-05-21T11:02:18.351Z,29.50
2018-05-21T11:04:45.829Z,29.30
2018-05-21T11:07:13.251Z,29.40
2018-05-21T11:09:41.475Z,30.40
2018-05-21T11:12:08.991Z,30.30
2018-05-21T11:14:37.155Z,30.30
2018-05-21T11:17:04.607Z,30.30
2018-05-21T11:19:32.837Z,29.30
2018-05-21T11:22:00.285Z,29.20
2018-05-21T11:24:28.523Z,28.20
2018-05-21T11:26:55.998Z,28.20
2018-05-21T11:29:23.435Z,29.20
2018-05-21T11:31:50.945Z,29.10
2018-05-21T11:34:18.377Z,29.80
2018-05-21T11:36:45.829Z,29.30
2018-05-21T11:39:13.288Z,29.80
2018-05-21T11:41:41.510Z,28.70
2018-05-21T11:44:09.004Z,28.70
2018-05-21T11:46:36.980Z,29.10
2018-05-21T11:49:04.431Z,29.20
2018-05-21T11:51:32.657Z,28.70
2018-05-21T11:54:00.862Z,28.30
2018-05-21T11:56:28.324Z,28.30
2018-05-21T11:58:56.539Z,28.50
2018-05-21T12:01:23.995Z,28.40
2018-05-21T12:03:51.448Z,28.80
2018-05-21T12:06:18.904Z,28.70
2018-05-21T12:08:46.364Z,28.40
2018-05-21T12:11:14.575Z,28.00
2018-05-21T12:13:42.027Z,28.00
2018-05-21T12:16:10.260Z,28.00
2018-05-21T12:18:38.154Z,28.00
2018-05-21T12:21:05.608Z,28.40
2018-05-21T12:23:33.836Z,28.80
2018-05-21T12:26:01.280Z,28.80
2018-05-21T12:28:29.502Z,28.20
2018-05-21T12:30:57.719Z,27.80
2018-05-21T12:33:25.171Z,27.80
2018-05-21T12:35:53.403Z,27.80
2018-05-21T12:38:20.871Z,27.80
2018-05-21T12:40:48.320Z,27.70
2018-05-21T12:43:15.781Z,27.50
2018-05-21T12:45:43.222Z,27.30
2018-05-21T12:48:10.689Z,27.70
2018-05-21T12:53:12.200Z,28.30
2018-05-21T12:55:40.433Z,28.30
2018-05-21T12:58:08.711Z,28.30
2018-05-21T13:00:37.329Z,27.90
2018-05-21T13:03:04.783Z,27.90
2018-05-21T13:05:32.227Z,28.10
2018-05-21T13:07:59.679Z,27.50
2018-05-21T13:10:27.127Z,27.20
2018-05-21T13:12:54.683Z,27.40
2018-05-21T13:15:22.229Z,28.10
2018-05-21T13:17:49.598Z,27.90
2018-05-21T13:20:17.814Z,27.80
2018-05-21T13:22:45.265Z,27.80
2018-05-21T13:25:12.719Z,28.10
2018-05-21T13:27:40.190Z,26.90
2018-05-21T13:30:08.317Z,27.70
2018-05-21T13:32:35.759Z,27.10
2018-05-21T13:35:03.229Z,27.10
2018-05-21T13:37:30.671Z,27.30
2018-05-21T13:39:58.890Z,27.60
2018-05-21T13:42:26.350Z,27.50
2018-05-21T13:44:53.795Z,27.10
2018-05-21T13:47:22.553Z,27.60
2018-05-21T13:49:50.020Z,27.40
2018-05-21T13:52:17.561Z,27.00
2018-05-21T13:54:44.944Z,27.40
2018-05-21T13:57:12.400Z,27.80
2018-05-21T13:59:39.864Z,27.50
2018-05-21T14:02:08.815Z,27.80
2018-05-21T14:04:36.583Z,27.70
2018-05-21T14:07:04.798Z,27.70
2018-05-21T14:09:32.249Z,27.60
2018-05-21T14:11:59.712Z,27.20
2018-05-21T14:14:27.164Z,26.80
2018-05-21T14:16:54.620Z,27.40
2018-05-21T14:19:22.111Z,27.60
2018-05-21T14:21:49.551Z,27.10
2018-05-21T14:24:17.007Z,27.80
2018-05-21T14:26:44.470Z,27.40
2018-05-21T14:29:11.924Z,28.50
2018-05-21T14:31:40.148Z,28.60
2018-05-21T14:34:08.291Z,28.50
2018-05-21T14:36:35.724Z,27.80
2018-05-21T14:39:03.175Z,27.80
2018-05-21T14:41:31.396Z,28.00
2018-05-21T14:43:58.848Z,27.90
2018-05-21T14:46:26.294Z,27.70
2018-05-21T14:48:53.768Z,28.80
2018-05-21T14:51:21.228Z,28.40
2018-05-21T14:53:48.681Z,27.80
2018-05-21T14:56:16.352Z,28.00
2018-05-21T14:58:43.795Z,27.70
2018-05-21T15:01:11.263Z,27.60
2018-05-21T15:03:38.718Z,27.90
2018-05-21T15:06:07.445Z,28.70
2018-05-21T15:08:35.657Z,28.20
2018-05-21T15:11:03.115Z,28.10
2018-05-21T15:13:31.335Z,28.10
2018-05-21T15:15:58.830Z,28.00
2018-05-21T15:18:26.243Z,29.10
2018-05-21T15:20:53.704Z,28.40
2018-05-21T15:23:21.166Z,28.30
2018-05-21T15:25:48.603Z,28.10
2018-05-21T15:28:16.071Z,28.80
2018-05-21T15:30:43.525Z,28.70
2018-05-21T15:33:10.988Z,28.70
2018-05-21T15:35:38.452Z,28.90
2018-05-21T15:38:07.324Z,29.00
2018-05-21T15:40:34.780Z,29.00
2018-05-21T15:43:02.231Z,28.70
2018-05-21T15:45:30.446Z,29.10
2018-05-21T15:47:57.912Z,29.10
2018-05-21T15:50:26.142Z,29.40
2018-05-21T15:52:53.583Z,29.40
2018-05-21T15:55:21.035Z,29.00
2018-05-21T15:57:48.491Z,29.80
2018-05-21T16:00:15.944Z,29.10
2018-05-21T16:02:44.151Z,29.30
2018-05-21T16:05:11.627Z,29.20
2018-05-21T16:07:39.847Z,29.30
2018-05-21T16:10:07.304Z,29.30
2018-05-21T16:12:35.525Z,29.10
2018-05-21T16:15:02.982Z,29.10
2018-05-21T16:17:31.199Z,30.30
2018-05-21T16:19:58.662Z,29.70
2018-05-21T16:22:26.887Z,29.40
2018-05-21T16:24:54.344Z,29.40
2018-05-21T16:27:22.567Z,29.70
2018-05-21T16:29:50.787Z,29.70
2018-05-21T16:32:18.240Z,29.70
2018-05-21T16:34:46.459Z,29.90
2018-05-21T16:37:13.911Z,29.80
2018-05-21T16:39:42.131Z,30.10
2018-05-21T16:42:10.353Z,29.70
2018-05-21T16:44:38.611Z,29.70
2018-05-21T16:47:07.196Z,31.00
2018-05-21T16:49:34.646Z,31.00
2018-05-21T16:52:02.103Z,31.10
2018-05-21T16:54:29.554Z,31.50
2018-05-21T16:56:57.007Z,30.40
2018-05-21T16:59:24.468Z,30.10
2018-05-21T17:01:51.924Z,31.00
2018-05-21T17:04:19.376Z,31.10
2018-05-21T17:06:46.833Z,31.00
2018-05-21T17:09:14.287Z,31.20
2018-05-21T17:11:41.739Z,31.40
2018-05-21T17:14:09.202Z,31.50
2018-05-21T17:16:37.298Z,31.30
2018-05-21T17:19:04.752Z,31.90
2018-05-21T17:21:32.211Z,31.70
2018-05-21T17:23:59.673Z,31.00
2018-05-21T17:26:27.891Z,31.30
2018-05-21T17:28:55.446Z,31.30
2018-05-21T17:31:22.992Z,31.90
2018-05-21T17:33:50.439Z,31.70
2018-05-21T17:36:17.898Z,31.90
2018-05-21T17:38:46.112Z,31.60
2018-05-21T17:41:14.333Z,31.60
2018-05-21T17:43:41.801Z,31.60
2018-05-21T17:46:09.260Z,32.30
2018-05-21T17:48:38.376Z,31.60
2018-05-21T17:51:07.231Z,32.00
2018-05-21T17:53:34.689Z,32.00
2018-05-21T17:56:02.914Z,32.30
2018-05-21T17:58:30.362Z,32.20
2018-05-21T18:00:58.627Z,33.00
2018-05-21T18:03:26.048Z,33.00
2018-05-21T18:05:54.269Z,32.80
2018-05-21T18:08:21.715Z,32.80
2018-05-21T18:10:49.367Z,32.40
2018-05-21T18:13:16.870Z,32.70
2018-05-21T18:15:44.315Z,32.60
2018-05-21T18:18:11.796Z,32.40
2018-05-21T18:20:39.261Z,32.60
2018-05-21T18:23:07.384Z,32.50
2018-05-21T18:25:34.830Z,33.20
2018-05-21T18:28:02.298Z,33.30
2018-05-21T18:30:32.069Z,33.20
2018-05-21T18:32:59.539Z,33.30
2018-05-21T18:35:26.999Z,33.00
2018-05-21T18:37:55.222Z,33.60
2018-05-21T18:40:22.680Z,33.50
2018-05-21T18:42:50.153Z,33.50
2018-05-21T18:45:17.601Z,34.00
2018-05-21T18:47:45.061Z,33.90
2018-05-21T18:50:12.519Z,33.90
2018-05-21T18:52:40.752Z,33.90
2018-05-21T18:55:08.211Z,33.90
2018-05-21T18:57:36.710Z,34.50
2018-05-21T19:00:04.923Z,33.90
2018-05-21T19:02:32.380Z,33.90
2018-05-21T19:05:00.601Z,34.20
2018-05-21T19:07:28.056Z,34.20
2018-05-21T19:09:55.511Z,34.30
2018-05-21T19:12:22.991Z,34.40
2018-05-21T19:14:50.442Z,34.50
2018-05-21T19:17:17.891Z,34.50
2018-05-21T19:19:46.113Z,35.30
2018-05-21T19:22:14.336Z,34.80
2018-05-21T19:24:41.800Z,34.80
2018-05-21T19:27:09.256Z,34.80
2018-05-21T19:29:37.485Z,34.90
2018-05-21T19:32:04.946Z,34.90
2018-05-21T19:34:33.168Z,35.40
2018-05-21T19:37:00.621Z,35.40
2018-05-21T19:39:28.851Z,35.10
2018-05-21T19:41:56.337Z,35.10
2018-05-21T19:44:23.790Z,35.20
2018-05-21T19:46:52.014Z,35.60
2018-05-21T19:49:19.472Z,35.60
2018-05-21T19:51:47.683Z,35.80
2018-05-21T19:54:15.149Z,35.60
2018-05-21T19:56:42.605Z,35.50
2018-05-21T19:59:10.064Z,35.90
2018-05-21T20:01:37.541Z,35.90
2018-05-21T20:04:05.000Z,35.80
2018-05-21T20:06:32.443Z,36.00
2018-05-21T20:08:59.899Z,36.00
2018-05-21T20:11:27.356Z,35.80
2018-05-21T20:13:54.808Z,35.90
2018-05-21T20:16:23.039Z,36.40
2018-05-21T20:18:50.496Z,36.30
2018-05-21T20:21:18.751Z,36.20
2018-05-21T20:23:46.440Z,36.20
2018-05-21T20:26:13.963Z,36.40
2018-05-21T20:28:41.444Z,36.60
2018-05-21T20:31:08.946Z,36.50
2018-05-21T20:33:37.593Z,36.80
2018-05-21T20:36:06.561Z,36.70
2018-05-21T20:38:34.860Z,36.80
2018-05-21T20:41:03.099Z,37.40
2018-05-21T20:43:30.576Z,36.80
2018-05-21T20:45:58.056Z,37.00
2018-05-21T20:48:25.532Z,37.10
2018-05-21T20:50:53.010Z,37.30
2018-05-21T20:53:20.536Z,37.50
2018-05-21T20:55:48.022Z,37.90
2018-05-21T20:58:15.507Z,38.20
2018-05-21T21:00:42.980Z,38.20
2018-05-21T21:03:10.490Z,38.80
2018-05-21T21:05:38.864Z,38.90
2018-05-21T21:08:06.609Z,39.10
2018-05-21T21:10:34.914Z,39.60
2018-05-21T21:13:02.359Z,39.60
2018-05-21T21:15:29.987Z,39.60
2018-05-21T21:17:57.457Z,40.00
2018-05-21T21:20:25.697Z,39.90
2018-05-21T21:22:53.143Z,39.80
2018-05-21T21:25:20.653Z,40.30
2018-05-21T21:27:49.679Z,40.30
2018-05-21T21:30:17.155Z,40.20
2018-05-21T21:32:44.642Z,40.40
2018-05-21T21:35:12.118Z,40.90
2018-05-21T21:37:39.592Z,40.80
2018-05-21T21:40:07.696Z,41.10
2018-05-21T21:42:35.192Z,41.10
2018-05-21T21:45:02.656Z,41.10
2018-05-21T21:47:30.136Z,41.10
2018-05-21T21:49:57.626Z,41.20
2018-05-21T21:52:25.095Z,41.80
2018-05-21T21:54:52.572Z,42.00
2018-05-21T21:57:20.035Z,41.90
2018-05-21T21:59:48.256Z,42.40
2018-05-21T22:02:15.741Z,42.10
2018-05-21T22:04:43.187Z,42.10
2018-05-21T22:07:10.643Z,42.30
2018-05-21T22:09:38.584Z,42.10
2018-05-21T22:12:07.331Z,42.70
2018-05-21T22:14:34.802Z,42.10
2018-05-21T22:17:02.258Z,42.40
2018-05-21T22:19:30.504Z,42.40
2018-05-21T22:21:57.956Z,42.40
2018-05-21T22:24:25.434Z,42.40
2018-05-21T22:26:53.643Z,42.60
2018-05-21T22:29:21.097Z,42.50
2018-05-21T22:31:49.310Z,42.70
2018-05-21T22:34:16.759Z,42.60
2018-05-21T22:36:44.218Z,42.70
2018-05-21T22:39:11.664Z,42.70
2018-05-21T22:41:39.128Z,42.70
2018-05-21T22:44:07.861Z,43.00
2018-05-21T22:46:35.311Z,42.80
2018-05-21T22:49:03.528Z,42.80
2018-05-21T22:51:30.982Z,42.70
2018-05-21T22:53:58.430Z,43.00
2018-05-21T22:56:25.894Z,43.30
2018-05-21T22:58:53.343Z,43.30
2018-05-21T23:01:21.564Z,43.50
2018-05-21T23:03:49.016Z,43.40
2018-05-21T23:06:16.480Z,43.60
2018-05-21T23:08:43.936Z,43.70
2018-05-21T23:11:11.389Z,43.60
2018-05-21T23:13:39.933Z,43.80
2018-05-21T23:16:07.915Z,43.70
2018-05-21T23:18:35.393Z,43.90
2018-05-21T23:21:02.884Z,44.00
2018-05-21T23:23:30.344Z,44.20
2018-05-21T23:25:57.806Z,44.00
2018-05-21T23:28:26.027Z,44.00
2018-05-21T23:30:53.483Z,44.00
2018-05-21T23:33:21.734Z,44.00
2018-05-21T23:35:49.187Z,44.00
2018-05-21T23:38:16.641Z,44.30
2018-05-21T23:40:44.094Z,44.20
2018-05-21T23:43:11.561Z,44.30
2018-05-21T23:45:39.034Z,44.40
2018-05-21T23:48:06.844Z,44.30
2018-05-21T23:50:34.307Z,44.30
2018-05-21T23:53:01.794Z,44.30
2018-05-21T23:55:29.252Z,44.40
2018-05-21T23:57:56.703Z,44.50
